Pagina principală
METAR-TAF:

METAR-TAF

Aeroporturi :

Ada, Oklahoma, Statele Unite ale Americii

Latitudine: 34-48-16N, longitudine: 096-40-17W, elevație: 310 m

Observații meteo curente

Raportul a fost făcut în urmă cu 21 de minute, la 05:35 UTC
Vânt 4 kt de la Sud-est
Temperatură 21°C
Umiditate 83%
Presiune 1014 hPa
Vizibilitate: 16.1 km
Cer senin

METAR: KADH 190535Z AUTO 13004KT 10SM CLR 21/18 A2994 RMK AO2

Ora: 00:56 (05:56 UTC)


TAF: lipsă

Observații și prognoze meteo pentru peste 4.000 de aeroporturi (rapoarte METAR și TAF).

Stațiile disponibile sunt reprezentate pe hartă prin puncte galbene și roșii.

Țineți indicatorul mouse-ului pe punctul dorit pentru a vedea denumirea stației.

Apoi, faceți clic pentru a vedea observațiile și prognozele meteorologice.

Pentru a schimba harta: Pentru mărire, faceți clic pe butoanele verzi cu cruce neagră; pentru micșorare, pe butonul verde cu o liniuță; pentru hărți învecinate, pe săgețile verzi.


METAR-TAF: